Time;durP1;ratioP1;P1;durP2;ratioP2;P2;SDS_P1;SDS_P2;PMS_P1;PMS_P2;Temp;Humidity;BMP_temperature;BMP_pressure;BME280_temperature;BME280_humidity;BME280_pressure;Samples;Min_cycle;Max_cycle;Signal;HPM_P1;HPM_P2
2022/03/02 00:01:27;;;;;;;20.97;8.33;;;;;;;;;;5048268;28;20032;-72
2022/03/02 00:03:53;;;;;;;23.43;7.87;;;;;;;;;;5048824;28;20041;-73
2022/03/02 00:06:18;;;;;;;24.97;9.97;;;;;;;;;;5048868;28;20024;-73
2022/03/02 00:08:43;;;;;;;18.60;7.63;;;;;;;;;;5041211;28;20029;-73
2022/03/02 00:11:10;;;;;;;17.97;7.80;;;;;;;;;;5044893;28;20017;-73
2022/03/02 00:13:35;;;;;;;20.47;8.20;;;;;;;;;;5047459;28;20029;-73
2022/03/02 00:16:00;;;;;;;19.57;8.40;;;;;;;;;;5049352;28;20177;-73
2022/03/02 00:18:26;;;;;;;18.40;8.23;;;;;;;;;;5046278;28;20497;-73
2022/03/02 00:20:52;;;;;;;20.37;8.27;;;;;;;;;;5049909;28;20047;-72
2022/03/02 00:23:17;;;;;;;18.53;7.47;;;;;;;;;;5048157;28;20108;-73
2022/03/02 00:25:42;;;;;;;19.97;7.67;;;;;;;;;;5049235;28;20028;-73
2022/03/02 00:28:07;;;;;;;19.27;7.83;;;;;;;;;;5054662;28;20289;-73
2022/03/02 00:30:34;;;;;;;22.17;8.37;;;;;;;;;;5047829;28;20025;-72
2022/03/02 00:32:59;;;;;;;22.67;8.63;;;;;;;;;;5043042;28;20432;-73
2022/03/02 00:35:25;;;;;;;22.00;7.80;;;;;;;;;;5046084;28;20312;-73
2022/03/02 00:37:51;;;;;;;20.90;8.57;;;;;;;;;;5047588;28;20166;-73
2022/03/02 00:40:16;;;;;;;22.97;8.73;;;;;;;;;;5040032;28;20258;-73
2022/03/02 00:42:43;;;;;;;19.87;8.70;;;;;;;;;;5047715;28;20037;-73
2022/03/02 00:45:09;;;;;;;20.50;8.80;;;;;;;;;;5040896;28;20029;-72
2022/03/02 00:47:34;;;;;;;24.60;9.17;;;;;;;;;;5048026;28;20025;-72
2022/03/02 00:50:00;;;;;;;22.67;9.40;;;;;;;;;;5048036;28;20430;-74
2022/03/02 00:52:25;;;;;;;23.07;8.40;;;;;;;;;;5048348;28;20189;-75
2022/03/02 00:54:51;;;;;;;22.80;9.60;;;;;;;;;;5045650;28;20094;-73
2022/03/02 00:57:16;;;;;;;19.57;8.60;;;;;;;;;;5047054;28;20033;-72
2022/03/02 00:59:41;;;;;;;23.10;9.27;;;;;;;;;;5045333;28;20039;-73
2022/03/02 01:02:06;;;;;;;23.57;8.87;;;;;;;;;;5047767;28;20389;-72
2022/03/02 01:04:32;;;;;;;24.30;8.90;;;;;;;;;;5042259;28;20139;-72
2022/03/02 01:06:57;;;;;;;23.40;9.10;;;;;;;;;;5048377;28;20096;-72
2022/03/02 01:09:22;;;;;;;22.80;8.30;;;;;;;;;;5046903;28;20258;-72
2022/03/02 01:11:48;;;;;;;20.50;7.77;;;;;;;;;;5048161;28;20045;-72
2022/03/02 01:14:13;;;;;;;26.33;9.43;;;;;;;;;;5045863;28;20033;-72
2022/03/02 01:16:38;;;;;;;22.90;9.77;;;;;;;;;;5048041;28;20036;-72
2022/03/02 01:19:03;;;;;;;21.67;9.40;;;;;;;;;;5044076;28;20577;-72
2022/03/02 01:21:29;;;;;;;21.90;9.10;;;;;;;;;;5046735;28;20025;-72
2022/03/02 01:23:56;;;;;;;20.17;7.73;;;;;;;;;;5046615;28;20277;-72
2022/03/02 01:26:21;;;;;;;20.20;8.20;;;;;;;;;;5045799;28;20064;-72
2022/03/02 01:28:47;;;;;;;27.17;11.50;;;;;;;;;;5037481;28;20060;-72
2022/03/02 01:31:12;;;;;;;20.87;8.63;;;;;;;;;;5046009;28;20083;-72
2022/03/02 01:33:38;;;;;;;21.77;8.53;;;;;;;;;;5045819;28;20497;-72
2022/03/02 01:36:03;;;;;;;23.47;8.97;;;;;;;;;;5044965;28;20591;-72
2022/03/02 01:38:28;;;;;;;22.67;8.50;;;;;;;;;;5044920;28;20021;-72
2022/03/02 01:40:54;;;;;;;24.50;9.87;;;;;;;;;;5046483;28;20464;-72
2022/03/02 01:43:19;;;;;;;20.13;8.00;;;;;;;;;;5053265;28;20051;-72
2022/03/02 01:45:44;;;;;;;20.83;8.53;;;;;;;;;;5045861;28;20268;-72
2022/03/02 01:48:10;;;;;;;20.70;8.43;;;;;;;;;;5040659;28;20045;-71
2022/03/02 01:50:35;;;;;;;23.93;8.97;;;;;;;;;;5045485;28;20656;-72
2022/03/02 01:53:00;;;;;;;23.60;9.67;;;;;;;;;;5045535;28;20029;-72
2022/03/02 01:55:26;;;;;;;20.83;10.10;;;;;;;;;;5044170;28;20025;-72
2022/03/02 01:57:51;;;;;;;20.90;8.73;;;;;;;;;;5044921;28;20025;-72
2022/03/02 02:00:18;;;;;;;25.97;9.60;;;;;;;;;;5045337;28;20079;-71
2022/03/02 02:02:44;;;;;;;23.00;9.50;;;;;;;;;;5045323;28;20132;-72
2022/03/02 02:05:09;;;;;;;24.23;8.83;;;;;;;;;;5047995;28;20067;-72
2022/03/02 02:07:34;;;;;;;24.27;9.40;;;;;;;;;;5049580;28;20044;-72
2022/03/02 02:10:00;;;;;;;20.97;8.40;;;;;;;;;;5047684;28;20605;-71
2022/03/02 02:12:25;;;;;;;20.10;7.90;;;;;;;;;;5048556;28;20090;-71
2022/03/02 02:14:51;;;;;;;24.23;9.13;;;;;;;;;;5043322;28;20372;-71
2022/03/02 02:17:16;;;;;;;20.57;8.63;;;;;;;;;;5047290;28;20039;-71
2022/03/02 02:19:41;;;;;;;24.37;9.40;;;;;;;;;;5047820;28;20077;-71
2022/03/02 02:22:07;;;;;;;19.90;8.97;;;;;;;;;;5046675;28;20226;-72
2022/03/02 02:24:32;;;;;;;23.13;8.60;;;;;;;;;;5047706;28;20078;-72
2022/03/02 02:26:57;;;;;;;20.17;10.13;;;;;;;;;;5049371;28;20025;-72
2022/03/02 02:29:23;;;;;;;21.13;8.67;;;;;;;;;;5048559;28;20422;-72
2022/03/02 02:31:49;;;;;;;21.73;8.70;;;;;;;;;;5049112;28;20029;-72
2022/03/02 02:34:15;;;;;;;23.03;8.47;;;;;;;;;;5049013;28;20035;-72
2022/03/02 02:36:40;;;;;;;21.03;8.27;;;;;;;;;;5050608;28;20025;-72
2022/03/02 02:39:05;;;;;;;22.10;8.20;;;;;;;;;;5052055;28;20028;-72
2022/03/02 02:41:32;;;;;;;20.37;8.10;;;;;;;;;;5048439;28;20116;-71
2022/03/02 02:43:57;;;;;;;23.83;8.93;;;;;;;;;;5047412;28;20037;-72
2022/03/02 02:46:22;;;;;;;25.43;8.73;;;;;;;;;;5048103;28;20033;-72
2022/03/02 02:48:48;;;;;;;23.37;9.50;;;;;;;;;;5046957;28;20036;-71
2022/03/02 02:51:13;;;;;;;20.30;7.67;;;;;;;;;;5048152;28;20268;-71
2022/03/02 02:53:38;;;;;;;23.53;8.33;;;;;;;;;;5043468;28;20025;-72
2022/03/02 02:56:04;;;;;;;19.83;8.57;;;;;;;;;;5048419;28;20601;-72
2022/03/02 02:58:29;;;;;;;25.07;8.33;;;;;;;;;;5046913;28;20053;-72
2022/03/02 03:00:54;;;;;;;24.13;9.27;;;;;;;;;;5046816;28;20098;-72
2022/03/02 03:03:20;;;;;;;19.53;8.20;;;;;;;;;;5045904;28;20323;-72
2022/03/02 03:05:45;;;;;;;19.60;8.10;;;;;;;;;;5048571;28;20028;-72
2022/03/02 03:08:11;;;;;;;23.77;7.77;;;;;;;;;;5048115;28;20033;-72
2022/03/02 03:10:37;;;;;;;20.03;10.00;;;;;;;;;;5047655;28;20493;-72
2022/03/02 03:13:03;;;;;;;23.40;9.37;;;;;;;;;;5037523;28;20021;-72
2022/03/02 03:15:29;;;;;;;20.20;9.07;;;;;;;;;;5042770;28;20033;-72
2022/03/02 03:17:54;;;;;;;21.50;8.83;;;;;;;;;;5046245;28;20072;-72
2022/03/02 03:20:21;;;;;;;19.27;7.97;;;;;;;;;;5048017;28;20024;-72
2022/03/02 03:22:46;;;;;;;20.07;9.17;;;;;;;;;;5039229;28;20033;-71
2022/03/02 03:25:12;;;;;;;23.33;8.90;;;;;;;;;;5047465;28;20063;-72
2022/03/02 03:27:38;;;;;;;21.60;8.80;;;;;;;;;;5048079;28;20056;-72
2022/03/02 03:30:04;;;;;;;22.97;9.03;;;;;;;;;;5047195;28;20032;-72
2022/03/02 03:32:30;;;;;;;24.63;8.73;;;;;;;;;;5046203;28;20039;-71
2022/03/02 03:34:55;;;;;;;23.20;8.70;;;;;;;;;;5041591;28;20025;-72
2022/03/02 03:37:20;;;;;;;28.63;9.47;;;;;;;;;;5046612;28;20029;-72
2022/03/02 03:39:45;;;;;;;21.23;8.27;;;;;;;;;;5044239;28;20032;-72
2022/03/02 03:42:11;;;;;;;25.70;10.10;;;;;;;;;;5048072;28;20498;-74
2022/03/02 03:44:37;;;;;;;23.83;9.30;;;;;;;;;;5048397;28;20102;-75
2022/03/02 03:47:02;;;;;;;23.23;9.23;;;;;;;;;;5047585;28;20385;-72
2022/03/02 03:49:27;;;;;;;25.63;10.00;;;;;;;;;;5047212;28;20024;-72
2022/03/02 03:51:53;;;;;;;24.43;9.17;;;;;;;;;;5047839;28;20089;-71
2022/03/02 03:54:18;;;;;;;26.37;10.27;;;;;;;;;;5046273;28;20033;-72
2022/03/02 03:56:43;;;;;;;26.70;9.60;;;;;;;;;;5047734;28;20585;-72
2022/03/02 03:59:09;;;;;;;21.53;9.77;;;;;;;;;;5046148;28;20276;-72
2022/03/02 04:01:34;;;;;;;22.13;9.57;;;;;;;;;;5046685;28;20033;-72
2022/03/02 04:04:00;;;;;;;23.77;10.00;;;;;;;;;;5046636;28;20150;-72
2022/03/02 04:06:25;;;;;;;29.37;10.23;;;;;;;;;;5046148;28;20040;-72
2022/03/02 04:08:50;;;;;;;24.07;8.87;;;;;;;;;;5047010;28;20382;-72
2022/03/02 04:11:16;;;;;;;23.97;8.53;;;;;;;;;;5046172;28;20457;-72
2022/03/02 04:13:41;;;;;;;23.83;10.27;;;;;;;;;;5046741;28;20066;-73
2022/03/02 04:16:06;;;;;;;21.43;9.97;;;;;;;;;;5047047;28;20044;-72
2022/03/02 04:18:32;;;;;;;21.67;8.87;;;;;;;;;;5041019;28;20176;-73
2022/03/02 04:20:58;;;;;;;21.73;9.23;;;;;;;;;;5041520;28;20179;-72
2022/03/02 04:23:23;;;;;;;24.77;9.57;;;;;;;;;;5046687;28;20116;-73
2022/03/02 04:25:49;;;;;;;19.83;8.63;;;;;;;;;;5046832;28;20277;-72
2022/03/02 04:28:14;;;;;;;23.63;9.30;;;;;;;;;;5047028;28;20378;-72
2022/03/02 04:30:39;;;;;;;24.20;9.67;;;;;;;;;;5048253;28;20421;-73
2022/03/02 04:33:05;;;;;;;24.97;9.07;;;;;;;;;;5045036;28;20037;-72
2022/03/02 04:35:31;;;;;;;22.60;10.20;;;;;;;;;;5045915;28;20028;-73
2022/03/02 04:37:56;;;;;;;22.83;8.90;;;;;;;;;;5045333;28;20017;-72
2022/03/02 04:40:21;;;;;;;23.23;9.17;;;;;;;;;;5047001;28;20051;-73
2022/03/02 04:42:47;;;;;;;22.70;9.50;;;;;;;;;;5046822;28;20021;-72
2022/03/02 04:45:12;;;;;;;22.40;8.80;;;;;;;;;;5045969;28;20013;-72
2022/03/02 04:47:38;;;;;;;27.03;10.10;;;;;;;;;;5048569;28;20519;-72
2022/03/02 04:50:04;;;;;;;25.63;9.70;;;;;;;;;;5045852;28;20025;-73
2022/03/02 04:52:29;;;;;;;23.10;8.93;;;;;;;;;;5042962;28;20104;-72
2022/03/02 04:55:07;;;;;;;22.03;8.60;;;;;;;;;;5046374;28;20053;-72
2022/03/02 04:57:36;;;;;;;24.73;9.40;;;;;;;;;;5046332;28;20017;-72
2022/03/02 05:00:04;;;;;;;24.97;8.47;;;;;;;;;;5044758;28;20020;-72
2022/03/02 05:02:29;;;;;;;24.53;9.13;;;;;;;;;;5046236;28;20076;-72
2022/03/02 05:04:54;;;;;;;20.97;8.33;;;;;;;;;;5045138;28;20056;-73
2022/03/02 05:07:20;;;;;;;24.27;9.93;;;;;;;;;;5045345;28;20587;-72
2022/03/02 05:09:45;;;;;;;20.83;8.63;;;;;;;;;;5042670;28;20056;-72
2022/03/02 05:12:10;;;;;;;21.20;9.47;;;;;;;;;;5046434;28;20029;-72
2022/03/02 05:14:35;;;;;;;23.20;8.30;;;;;;;;;;5043761;28;20535;-72
2022/03/02 05:17:01;;;;;;;22.57;8.57;;;;;;;;;;5046723;28;20103;-72
2022/03/02 05:19:26;;;;;;;20.97;8.37;;;;;;;;;;5043959;28;20115;-71
2022/03/02 05:21:52;;;;;;;20.77;8.63;;;;;;;;;;5044660;28;20021;-72
2022/03/02 05:24:17;;;;;;;19.97;8.43;;;;;;;;;;5044923;28;20040;-72
2022/03/02 05:26:42;;;;;;;27.23;10.10;;;;;;;;;;5045210;28;20037;-72
2022/03/02 05:29:07;;;;;;;22.70;8.63;;;;;;;;;;5035720;28;20033;-72
2022/03/02 05:31:33;;;;;;;23.33;9.53;;;;;;;;;;5044940;28;20124;-71
2022/03/02 05:33:58;;;;;;;21.57;8.87;;;;;;;;;;5045031;28;20023;-71
2022/03/02 05:36:24;;;;;;;22.17;9.27;;;;;;;;;;5046415;28;20028;-72
2022/03/02 05:38:49;;;;;;;25.30;9.57;;;;;;;;;;5054360;28;20458;-71
2022/03/02 05:41:14;;;;;;;23.77;9.77;;;;;;;;;;5051372;28;20073;-73
2022/03/02 05:43:40;;;;;;;21.77;8.57;;;;;;;;;;5049970;28;20505;-70
2022/03/02 05:46:05;;;;;;;23.70;9.93;;;;;;;;;;5050714;28;20185;-70
2022/03/02 05:48:30;;;;;;;22.60;8.63;;;;;;;;;;5049583;28;20021;-71
2022/03/02 05:50:55;;;;;;;26.67;9.10;;;;;;;;;;5049578;28;20381;-70
2022/03/02 05:53:21;;;;;;;26.80;8.93;;;;;;;;;;5048054;28;20021;-70
2022/03/02 05:55:46;;;;;;;23.57;8.73;;;;;;;;;;5050948;28;20024;-70
2022/03/02 05:58:11;;;;;;;26.10;9.10;;;;;;;;;;5050710;28;20131;-70
2022/03/02 06:00:36;;;;;;;21.37;8.87;;;;;;;;;;5049601;28;20032;-71
2022/03/02 06:03:02;;;;;;;28.83;10.00;;;;;;;;;;5050340;28;20041;-71
2022/03/02 06:05:27;;;;;;;21.97;10.00;;;;;;;;;;5051139;28;20497;-71
2022/03/02 06:07:52;;;;;;;25.03;9.50;;;;;;;;;;5049243;28;20066;-71
2022/03/02 06:10:19;;;;;;;23.87;9.20;;;;;;;;;;5048717;28;20032;-71
2022/03/02 06:12:45;;;;;;;21.90;9.13;;;;;;;;;;5050072;28;20057;-71
2022/03/02 06:15:10;;;;;;;19.27;8.97;;;;;;;;;;5050734;28;20072;-71
2022/03/02 06:17:36;;;;;;;25.20;8.93;;;;;;;;;;5051126;28;20063;-72
2022/03/02 06:20:01;;;;;;;20.30;9.13;;;;;;;;;;5050027;28;20021;-71
2022/03/02 06:22:27;;;;;;;27.43;9.80;;;;;;;;;;5049153;28;20465;-71
2022/03/02 06:24:52;;;;;;;22.00;8.77;;;;;;;;;;5051013;28;20033;-71
2022/03/02 06:27:20;;;;;;;29.00;9.67;;;;;;;;;;5050168;28;20025;-71
2022/03/02 06:29:45;;;;;;;19.43;8.37;;;;;;;;;;5045282;28;20052;-74
2022/03/02 06:32:11;;;;;;;20.37;8.23;;;;;;;;;;5050167;28;20055;-71
2022/03/02 06:34:36;;;;;;;20.37;7.97;;;;;;;;;;5050209;28;20033;-71
2022/03/02 06:37:02;;;;;;;23.90;8.80;;;;;;;;;;5049192;28;20769;-72
2022/03/02 06:39:27;;;;;;;23.33;8.67;;;;;;;;;;5049307;28;20029;-71
2022/03/02 06:42:12;;;;;;;30.23;9.73;;;;;;;;;;5050619;28;20028;-71
2022/03/02 06:44:52;;;;;;;27.67;9.67;;;;;;;;;;5042330;28;20056;-72
2022/03/02 06:47:19;;;;;;;27.10;8.93;;;;;;;;;;5046888;28;20417;-72
2022/03/02 06:49:47;;;;;;;27.07;10.57;;;;;;;;;;5043358;28;20021;-72
2022/03/02 06:52:16;;;;;;;26.93;9.63;;;;;;;;;;5047329;28;20017;-72
2022/03/02 06:54:43;;;;;;;27.30;10.27;;;;;;;;;;5047419;28;20025;-72
2022/03/02 06:57:09;;;;;;;31.53;10.73;;;;;;;;;;5046423;28;20670;-72
2022/03/02 06:59:39;;;;;;;29.13;10.80;;;;;;;;;;5045657;28;20116;-72
2022/03/02 07:02:05;;;;;;;25.03;9.77;;;;;;;;;;5045591;28;20404;-73
2022/03/02 07:04:32;;;;;;;25.47;10.07;;;;;;;;;;5043802;28;20562;-72
2022/03/02 07:06:58;;;;;;;22.20;8.27;;;;;;;;;;5046185;28;20021;-72
2022/03/02 07:09:23;;;;;;;26.03;9.07;;;;;;;;;;5044730;28;20020;-72
2022/03/02 07:11:48;;;;;;;23.80;10.00;;;;;;;;;;5048638;28;20146;-72
2022/03/02 07:14:15;;;;;;;30.40;9.10;;;;;;;;;;5044894;28;20086;-72
2022/03/02 07:16:42;;;;;;;33.63;11.97;;;;;;;;;;5046636;28;20017;-72
2022/03/02 07:19:07;;;;;;;30.83;10.47;;;;;;;;;;5045241;28;20485;-72
2022/03/02 07:21:33;;;;;;;23.20;10.07;;;;;;;;;;5046942;28;20040;-72
2022/03/02 07:24:05;;;;;;;24.53;9.47;;;;;;;;;;5047726;28;20033;-72
2022/03/02 07:26:30;;;;;;;23.30;9.27;;;;;;;;;;5048483;28;20040;-72
2022/03/02 07:28:56;;;;;;;22.80;9.00;;;;;;;;;;5049198;28;20394;-72
2022/03/02 07:31:22;;;;;;;20.83;8.83;;;;;;;;;;5048753;28;20079;-72
2022/03/02 07:33:50;;;;;;;20.63;9.07;;;;;;;;;;5048250;28;20507;-73
2022/03/02 07:36:18;;;;;;;21.57;8.87;;;;;;;;;;5049221;28;20137;-72
2022/03/02 07:38:43;;;;;;;19.37;7.73;;;;;;;;;;5040389;28;20022;-72
2022/03/02 07:41:09;;;;;;;23.27;8.47;;;;;;;;;;5045916;28;20077;-72
2022/03/02 07:43:36;;;;;;;21.10;7.77;;;;;;;;;;5049020;28;20024;-72
2022/03/02 07:46:03;;;;;;;20.93;8.43;;;;;;;;;;5049048;28;20024;-72
2022/03/02 07:48:28;;;;;;;22.33;7.47;;;;;;;;;;5048174;28;20047;-72
2022/03/02 07:50:54;;;;;;;21.03;8.30;;;;;;;;;;5037081;28;20029;-72
2022/03/02 07:53:21;;;;;;;21.80;9.23;;;;;;;;;;5046107;28;20029;-72
2022/03/02 07:55:47;;;;;;;17.70;7.90;;;;;;;;;;5048592;28;20009;-73
2022/03/02 07:58:13;;;;;;;18.43;8.03;;;;;;;;;;5048531;28;20107;-72
2022/03/02 08:00:38;;;;;;;14.40;6.67;;;;;;;;;;5048381;28;20013;-73
2022/03/02 08:03:06;;;;;;;17.77;7.80;;;;;;;;;;5043736;28;20096;-73
2022/03/02 08:05:32;;;;;;;20.10;7.43;;;;;;;;;;5045626;28;20025;-73
2022/03/02 08:07:59;;;;;;;19.13;7.43;;;;;;;;;;5049839;28;20021;-73
2022/03/02 08:10:24;;;;;;;16.70;6.50;;;;;;;;;;5049731;28;20292;-73
2022/03/02 08:12:50;;;;;;;17.23;7.13;;;;;;;;;;5047319;28;20021;-73
2022/03/02 08:15:15;;;;;;;17.03;7.37;;;;;;;;;;5047622;28;20035;-73
2022/03/02 08:17:42;;;;;;;15.33;6.50;;;;;;;;;;5047251;28;20021;-72
2022/03/02 08:20:07;;;;;;;13.43;5.50;;;;;;;;;;5047649;28;20262;-72
2022/03/02 08:22:34;;;;;;;14.90;5.83;;;;;;;;;;5052106;28;20025;-71
2022/03/02 08:25:06;;;;;;;15.00;6.70;;;;;;;;;;5039409;28;20090;-70
2022/03/02 08:27:32;;;;;;;15.40;6.90;;;;;;;;;;5043379;28;20107;-71
2022/03/02 08:30:00;;;;;;;12.27;5.70;;;;;;;;;;5042382;28;20071;-71
2022/03/02 08:32:25;;;;;;;11.27;5.37;;;;;;;;;;5042402;28;20039;-71
2022/03/02 08:34:51;;;;;;;13.97;5.53;;;;;;;;;;5033178;28;20017;-70
2022/03/02 08:37:20;;;;;;;14.00;6.40;;;;;;;;;;5040387;28;20241;-71
2022/03/02 08:39:46;;;;;;;14.83;5.93;;;;;;;;;;5033484;28;20025;-71
2022/03/02 08:42:11;;;;;;;15.57;6.67;;;;;;;;;;5041958;28;20029;-70
2022/03/02 08:44:38;;;;;;;12.43;5.63;;;;;;;;;;5035243;28;20017;-71
2022/03/02 08:47:03;;;;;;;14.03;5.67;;;;;;;;;;5044293;28;20396;-71
2022/03/02 08:49:28;;;;;;;12.03;6.07;;;;;;;;;;5034880;28;20209;-70
2022/03/02 08:51:54;;;;;;;11.33;5.37;;;;;;;;;;5036161;28;20269;-70
2022/03/02 08:54:19;;;;;;;11.97;5.67;;;;;;;;;;5042648;28;20416;-71
2022/03/02 08:56:46;;;;;;;13.00;5.17;;;;;;;;;;5041417;28;20029;-71
2022/03/02 08:59:15;;;;;;;12.70;5.30;;;;;;;;;;5037363;28;20378;-70
2022/03/02 09:01:43;;;;;;;12.60;5.50;;;;;;;;;;5040465;28;20024;-71
2022/03/02 09:04:12;;;;;;;14.03;6.27;;;;;;;;;;5040084;28;20075;-70
2022/03/02 09:06:38;;;;;;;12.53;5.73;;;;;;;;;;5041425;28;20021;-71
2022/03/02 09:09:05;;;;;;;13.03;5.90;;;;;;;;;;5040963;28;20122;-71
2022/03/02 09:11:30;;;;;;;11.73;4.83;;;;;;;;;;5043002;28;20017;-71
2022/03/02 09:13:55;;;;;;;13.63;5.70;;;;;;;;;;5040810;28;20531;-72
2022/03/02 09:16:21;;;;;;;9.67;4.80;;;;;;;;;;5043244;28;20025;-72
2022/03/02 09:18:47;;;;;;;13.60;5.57;;;;;;;;;;5038087;28;20013;-73
2022/03/02 09:21:13;;;;;;;13.73;6.43;;;;;;;;;;5042116;28;20047;-72
2022/03/02 09:23:41;;;;;;;10.97;4.83;;;;;;;;;;5039101;28;20025;-73
2022/03/02 09:26:10;;;;;;;13.53;5.53;;;;;;;;;;5037690;28;20029;-73
2022/03/02 09:28:37;;;;;;;12.93;5.77;;;;;;;;;;5037571;28;20045;-72
2022/03/02 09:31:04;;;;;;;11.50;4.87;;;;;;;;;;5039520;28;20040;-73
2022/03/02 09:33:29;;;;;;;13.00;5.13;;;;;;;;;;5039976;28;20068;-73
2022/03/02 09:35:55;;;;;;;10.67;4.67;;;;;;;;;;5039430;28;20180;-73
2022/03/02 09:38:22;;;;;;;13.23;5.53;;;;;;;;;;5040494;28;20026;-73
2022/03/02 09:40:50;;;;;;;12.77;5.50;;;;;;;;;;5037711;28;20052;-73
2022/03/02 09:43:16;;;;;;;12.57;4.33;;;;;;;;;;5041945;28;20033;-73
2022/03/02 09:45:42;;;;;;;10.87;4.70;;;;;;;;;;5038167;28;20028;-72
2022/03/02 09:48:12;;;;;;;12.90;4.87;;;;;;;;;;5040824;28;20375;-73
2022/03/02 09:50:39;;;;;;;14.73;5.37;;;;;;;;;;5038324;28;20025;-72
2022/03/02 09:53:08;;;;;;;10.97;5.23;;;;;;;;;;5042369;28;20441;-73
2022/03/02 09:55:35;;;;;;;11.07;4.93;;;;;;;;;;5039208;28;20029;-73
2022/03/02 09:58:00;;;;;;;11.50;5.20;;;;;;;;;;5043197;28;20213;-73
2022/03/02 10:00:27;;;;;;;12.07;4.77;;;;;;;;;;5043877;28;20021;-73
2022/03/02 10:02:55;;;;;;;11.00;4.50;;;;;;;;;;5042828;28;20259;-73
2022/03/02 10:05:22;;;;;;;9.17;3.73;;;;;;;;;;5040704;28;20181;-72
2022/03/02 10:07:55;;;;;;;12.83;5.03;;;;;;;;;;5044307;28;20173;-73
2022/03/02 10:10:23;;;;;;;16.93;5.73;;;;;;;;;;5043918;28;20083;-73
2022/03/02 10:12:48;;;;;;;11.97;5.37;;;;;;;;;;5044995;28;20098;-73
2022/03/02 10:15:14;;;;;;;11.50;5.63;;;;;;;;;;5043410;28;20024;-73
2022/03/02 10:17:44;;;;;;;12.50;5.07;;;;;;;;;;5043815;28;20513;-74
2022/03/02 10:20:19;;;;;;;13.07;5.43;;;;;;;;;;5043213;28;20016;-73
2022/03/02 10:23:05;;;;;;;12.57;5.00;;;;;;;;;;5041395;28;20029;-73
2022/03/02 10:25:43;;;;;;;12.03;5.10;;;;;;;;;;5035193;28;20052;-73
2022/03/02 10:28:09;;;;;;;12.40;5.70;;;;;;;;;;5042578;28;20272;-73
2022/03/02 10:30:41;;;;;;;13.90;5.77;;;;;;;;;;5037249;28;20056;-73
2022/03/02 10:33:18;;;;;;;15.73;5.50;;;;;;;;;;5047934;28;20017;-74
2022/03/02 10:35:49;;;;;;;11.93;5.20;;;;;;;;;;5038228;28;20021;-74
2022/03/02 10:38:16;;;;;;;15.20;5.20;;;;;;;;;;5046227;28;20303;-74
2022/03/02 10:40:41;;;;;;;12.30;5.37;;;;;;;;;;5047453;28;20589;-74
2022/03/02 10:43:09;;;;;;;14.03;4.73;;;;;;;;;;5044736;28;20073;-73
2022/03/02 10:45:39;;;;;;;12.13;5.20;;;;;;;;;;5040579;28;20328;-73
2022/03/02 10:48:10;;;;;;;15.40;5.10;;;;;;;;;;5043306;28;20418;-73
2022/03/02 10:50:36;;;;;;;11.65;5.20;;;;;;;;;;5040987;28;20017;-74
2022/03/02 10:53:03;;;;;;;10.27;4.33;;;;;;;;;;5047317;28;20055;-74
2022/03/02 10:55:30;;;;;;;12.03;5.07;;;;;;;;;;5045544;28;20119;-74
2022/03/02 10:57:55;;;;;;;12.33;4.90;;;;;;;;;;5044380;28;20032;-73
2022/03/02 11:00:22;;;;;;;12.87;5.37;;;;;;;;;;5038659;28;20052;-74
2022/03/02 11:02:54;;;;;;;12.60;5.17;;;;;;;;;;5045859;28;20053;-74
2022/03/02 11:05:20;;;;;;;15.27;5.90;;;;;;;;;;5042993;28;20116;-74
2022/03/02 11:07:46;;;;;;;12.07;5.10;;;;;;;;;;5043078;28;20600;-74
2022/03/02 11:10:13;;;;;;;12.33;5.10;;;;;;;;;;5044154;28;20483;-73
2022/03/02 11:12:43;;;;;;;11.27;4.73;;;;;;;;;;5044134;28;20602;-73
2022/03/02 11:15:09;;;;;;;11.43;5.23;;;;;;;;;;5044477;28;20025;-74
2022/03/02 11:17:36;;;;;;;12.63;5.23;;;;;;;;;;5044922;28;20346;-74
2022/03/02 11:20:09;;;;;;;12.37;5.63;;;;;;;;;;5043430;28;20076;-73
2022/03/02 11:22:34;;;;;;;12.60;4.90;;;;;;;;;;5045296;28;20037;-74
2022/03/02 11:24:59;;;;;;;11.07;3.67;;;;;;;;;;5043746;28;20194;-73
2022/03/02 11:27:26;;;;;;;10.97;4.97;;;;;;;;;;5043553;28;20039;-74
2022/03/02 11:30:06;;;;;;;12.90;4.20;;;;;;;;;;5030542;28;20078;-73
2022/03/02 11:32:32;;;;;;;11.30;4.97;;;;;;;;;;5042551;28;20288;-74
2022/03/02 11:34:59;;;;;;;14.27;6.00;;;;;;;;;;5045155;28;20028;-74
2022/03/02 11:37:24;;;;;;;15.13;5.53;;;;;;;;;;5045579;28;20060;-73
2022/03/02 11:39:50;;;;;;;11.93;5.03;;;;;;;;;;5045182;28;20031;-74
2022/03/02 11:42:17;;;;;;;12.80;4.97;;;;;;;;;;5044960;28;20032;-74
2022/03/02 11:44:43;;;;;;;14.90;5.77;;;;;;;;;;5046260;28;20097;-74
2022/03/02 11:47:13;;;;;;;14.83;5.67;;;;;;;;;;5046612;28;20055;-74
2022/03/02 11:49:45;;;;;;;15.27;5.90;;;;;;;;;;5041747;28;20533;-74
2022/03/02 11:52:14;;;;;;;14.53;5.07;;;;;;;;;;5046610;28;20021;-74
2022/03/02 11:54:44;;;;;;;16.87;6.53;;;;;;;;;;5036392;28;20094;-74
2022/03/02 11:57:10;;;;;;;14.93;5.83;;;;;;;;;;5043625;28;20755;-74
2022/03/02 11:59:38;;;;;;;12.33;5.80;;;;;;;;;;5038833;28;20053;-73
2022/03/02 12:02:23;;;;;;;17.23;6.40;;;;;;;;;;5046995;28;20032;-74
2022/03/02 12:04:58;;;;;;;13.83;5.77;;;;;;;;;;5044917;28;20040;-74
2022/03/02 12:07:23;;;;;;;13.53;5.50;;;;;;;;;;5046053;28;20033;-74
2022/03/02 12:09:48;;;;;;;14.57;6.43;;;;;;;;;;5044949;28;20033;-73
2022/03/02 12:12:21;;;;;;;13.40;6.03;;;;;;;;;;5046476;28;20052;-74
2022/03/02 12:14:52;;;;;;;18.40;5.57;;;;;;;;;;5042831;28;20086;-74
2022/03/02 12:17:19;;;;;;;13.32;5.28;;;;;;;;;;5040760;28;20611;-74
2022/03/02 12:19:45;;;;;;;11.57;4.50;;;;;;;;;;5041112;28;20048;-73
2022/03/02 12:22:13;;;;;;;12.37;5.63;;;;;;;;;;5042305;28;20044;-74
2022/03/02 12:24:38;;;;;;;13.90;5.30;;;;;;;;;;5042212;28;20417;-74
2022/03/02 12:27:09;;;;;;;10.70;4.50;;;;;;;;;;5041642;28;20031;-74
2022/03/02 12:29:35;;;;;;;16.93;6.27;;;;;;;;;;5035754;28;20036;-74
2022/03/02 12:32:05;;;;;;;13.90;6.07;;;;;;;;;;5044751;28;20405;-74
2022/03/02 12:34:35;;;;;;;15.13;6.23;;;;;;;;;;5031516;28;20262;-74
2022/03/02 12:37:00;;;;;;;10.93;4.63;;;;;;;;;;5043924;28;20162;-74
2022/03/02 12:39:26;;;;;;;13.53;5.33;;;;;;;;;;5040632;28;20021;-74
2022/03/02 12:41:51;;;;;;;15.67;6.10;;;;;;;;;;5043006;28;20083;-74
2022/03/02 12:44:17;;;;;;;15.40;5.60;;;;;;;;;;5032688;28;20482;-74
2022/03/02 12:46:42;;;;;;;15.73;5.27;;;;;;;;;;5045567;28;20116;-74
2022/03/02 12:49:08;;;;;;;14.50;5.33;;;;;;;;;;5032963;28;20053;-74
2022/03/02 12:51:36;;;;;;;14.37;5.73;;;;;;;;;;5046991;28;20077;-74
2022/03/02 12:54:01;;;;;;;16.67;5.40;;;;;;;;;;5043123;28;20452;-74
2022/03/02 12:56:26;;;;;;;12.83;5.40;;;;;;;;;;5041547;28;20025;-75
2022/03/02 12:58:52;;;;;;;14.83;6.13;;;;;;;;;;5034218;28;20041;-74
2022/03/02 13:01:17;;;;;;;15.57;6.33;;;;;;;;;;5045362;28;20024;-73
2022/03/02 13:03:45;;;;;;;15.93;6.00;;;;;;;;;;5044972;28;20096;-73
2022/03/02 13:06:12;;;;;;;13.50;5.40;;;;;;;;;;5044148;28;20099;-73
2022/03/02 13:08:44;;;;;;;17.10;6.32;;;;;;;;;;5043911;28;20473;-73
2022/03/02 13:11:27;;;;;;;13.55;5.47;;;;;;;;;;5044150;28;20047;-73
2022/03/02 13:13:53;;;;;;;15.32;5.97;;;;;;;;;;5038472;28;20028;-73
2022/03/02 13:16:23;;;;;;;15.23;6.70;;;;;;;;;;5041377;28;20021;-74
2022/03/02 13:18:49;;;;;;;14.20;6.30;;;;;;;;;;5040066;28;20025;-73
2022/03/02 13:21:16;;;;;;;15.15;6.65;;;;;;;;;;5040859;28;20024;-74
2022/03/02 13:24:00;;;;;;;13.63;6.65;;;;;;;;;;5029814;28;20110;-73
2022/03/02 13:26:25;;;;;;;15.65;6.15;;;;;;;;;;5042823;28;20063;-73
2022/03/02 13:29:07;;;;;;;13.02;5.88;;;;;;;;;;5034077;28;20061;-73
2022/03/02 13:32:11;;;;;;;14.52;6.50;;;;;;;;;;5040969;28;20505;-73
2022/03/02 13:34:37;;;;;;;15.17;6.50;;;;;;;;;;4946901;28;20035;-73
2022/03/02 13:37:03;;;;;;;15.38;6.72;;;;;;;;;;4945231;28;20008;-74
2022/03/02 13:39:31;;;;;;;12.23;5.32;;;;;;;;;;4939419;29;20118;-73
2022/03/02 13:41:56;;;;;;;13.27;6.23;;;;;;;;;;4940410;29;20035;-74
2022/03/02 13:44:30;;;;;;;14.90;6.03;;;;;;;;;;4939596;29;20071;-74
2022/03/02 13:47:07;;;;;;;16.17;6.47;;;;;;;;;;4935487;28;20035;-73
2022/03/02 13:49:45;;;;;;;18.70;6.83;;;;;;;;;;4941013;29;20578;-72
2022/03/02 13:52:11;;;;;;;14.17;5.60;;;;;;;;;;4939163;29;20181;-73
2022/03/02 13:54:36;;;;;;;16.10;6.60;;;;;;;;;;4941728;29;20028;-73
2022/03/02 13:57:03;;;;;;;14.20;6.53;;;;;;;;;;4941271;29;20085;-73
2022/03/02 13:59:28;;;;;;;11.63;4.80;;;;;;;;;;4940333;28;20039;-73
2022/03/02 14:01:53;;;;;;;17.67;6.87;;;;;;;;;;4948985;28;20520;-73
2022/03/02 14:04:19;;;;;;;16.13;6.90;;;;;;;;;;4948355;28;20496;-74
2022/03/02 14:06:49;;;;;;;16.47;6.27;;;;;;;;;;5046399;28;20123;-73
2022/03/02 14:09:15;;;;;;;15.87;6.50;;;;;;;;;;5040581;28;20389;-73
2022/03/02 14:11:41;;;;;;;14.33;5.77;;;;;;;;;;5045783;28;20035;-73
2022/03/02 14:14:15;;;;;;;14.07;5.47;;;;;;;;;;5043866;28;20422;-73
2022/03/02 14:16:51;;;;;;;15.17;5.87;;;;;;;;;;5044978;28;20120;-73
2022/03/02 14:19:16;;;;;;;15.80;6.20;;;;;;;;;;5043938;28;20037;-73
2022/03/02 14:21:55;;;;;;;13.10;6.07;;;;;;;;;;5045232;28;20079;-73
2022/03/02 14:24:21;;;;;;;15.87;6.80;;;;;;;;;;5044110;28;20032;-73
2022/03/02 14:26:54;;;;;;;14.53;5.80;;;;;;;;;;5044070;28;20432;-74